createdAt,value
2022-10-11T00:00:01.064Z,1010.90
2022-10-11T00:00:22.237Z,1010.94
2022-10-11T00:00:43.284Z,1010.90
2022-10-11T00:01:04.475Z,1010.90
2022-10-11T00:01:25.595Z,1010.94
2022-10-11T00:01:46.758Z,1010.96
2022-10-11T00:02:07.820Z,1010.96
2022-10-11T00:02:28.872Z,1010.96
2022-10-11T00:02:49.918Z,1010.98
2022-10-11T00:03:10.973Z,1010.98
2022-10-11T00:03:32.073Z,1010.96
2022-10-11T00:03:53.090Z,1010.98
2022-10-11T00:04:14.169Z,1011.00
2022-10-11T00:04:35.190Z,1011.00
2022-10-11T00:04:56.244Z,1011.02
2022-10-11T00:05:17.294Z,1011.00
2022-10-11T00:05:38.390Z,1011.02
2022-10-11T00:05:59.422Z,1010.98
2022-10-11T00:06:20.480Z,1011.00
2022-10-11T00:06:41.537Z,1011.04
2022-10-11T00:07:02.586Z,1011.00
2022-10-11T00:07:23.645Z,1011.00
2022-10-11T00:07:44.716Z,1011.00
2022-10-11T00:08:05.752Z,1010.98
2022-10-11T00:08:26.803Z,1011.00
2022-10-11T00:08:47.866Z,1011.04
2022-10-11T00:09:08.923Z,1011.04
2022-10-11T00:09:29.965Z,1011.04
2022-10-11T00:09:51.016Z,1011.06
2022-10-11T00:10:12.086Z,1011.06
2022-10-11T00:10:33.171Z,1011.02
2022-10-11T00:10:54.335Z,1011.02
2022-10-11T00:11:15.378Z,1011.00
2022-10-11T00:11:36.430Z,1011.04
2022-10-11T00:11:57.486Z,1011.04
2022-10-11T00:12:18.533Z,1011.04
2022-10-11T00:12:39.587Z,1011.04
2022-10-11T00:13:00.677Z,1011.06
2022-10-11T00:13:21.699Z,1011.04
2022-10-11T00:13:42.747Z,1011.04
2022-10-11T00:14:03.791Z,1011.06
2022-10-11T00:14:24.835Z,1011.04
2022-10-11T00:14:45.898Z,1011.04
2022-10-11T00:15:06.996Z,1011.08
2022-10-11T00:15:28.008Z,1011.06
2022-10-11T00:15:49.059Z,1011.04
2022-10-11T00:16:10.117Z,1011.04
2022-10-11T00:16:31.170Z,1011.06
2022-10-11T00:16:52.220Z,1011.08
2022-10-11T00:17:13.320Z,1011.06
2022-10-11T00:17:34.353Z,1011.06
2022-10-11T00:17:55.402Z,1011.06
2022-10-11T00:18:16.460Z,1011.08
2022-10-11T00:18:37.521Z,1011.08
2022-10-11T00:18:58.584Z,1011.08
2022-10-11T00:19:19.668Z,1011.08
2022-10-11T00:19:40.747Z,1011.08
2022-10-11T00:20:01.802Z,1011.12
2022-10-11T00:20:22.851Z,1011.14
2022-10-11T00:20:43.906Z,1011.12
2022-10-11T00:21:04.950Z,1011.12
2022-10-11T00:21:26.009Z,1011.16
2022-10-11T00:21:47.087Z,1011.16
2022-10-11T00:22:08.190Z,1011.16
2022-10-11T00:22:29.240Z,1011.12
2022-10-11T00:22:50.281Z,1011.16
2022-10-11T00:23:11.385Z,1011.16
2022-10-11T00:23:32.408Z,1011.18
2022-10-11T00:23:53.482Z,1011.16
2022-10-11T00:24:14.526Z,1011.18
2022-10-11T00:24:35.581Z,1011.20
2022-10-11T00:24:56.634Z,1011.18
2022-10-11T00:25:17.691Z,1011.18
2022-10-11T00:25:38.731Z,1011.23
2022-10-11T00:25:59.781Z,1011.23
2022-10-11T00:26:20.836Z,1011.23
2022-10-11T00:26:46.405Z,1011.25
2022-10-11T00:27:08.969Z,1011.27
2022-10-11T00:27:30.049Z,1011.29
2022-10-11T00:27:51.099Z,1011.29
2022-10-11T00:28:12.196Z,1011.29
2022-10-11T00:28:33.262Z,1011.29
2022-10-11T00:28:54.362Z,1011.31
2022-10-11T00:29:15.408Z,1011.31
2022-10-11T00:29:36.547Z,1011.31
2022-10-11T00:29:57.571Z,1011.29
2022-10-11T00:30:18.644Z,1011.29
2022-10-11T00:30:39.679Z,1011.31
2022-10-11T00:31:00.773Z,1011.33
2022-10-11T00:31:21.820Z,1011.35
2022-10-11T00:31:42.914Z,1011.33
2022-10-11T00:32:03.948Z,1011.39
2022-10-11T00:32:25.001Z,1011.39
2022-10-11T00:32:46.045Z,1011.35
2022-10-11T00:33:07.113Z,1011.35
2022-10-11T00:33:28.158Z,1011.33
2022-10-11T00:33:49.230Z,1011.37
2022-10-11T00:34:10.285Z,1011.35
2022-10-11T00:34:31.339Z,1011.37
2022-10-11T00:34:52.493Z,1011.41
2022-10-11T00:35:13.502Z,1011.37
2022-10-11T00:35:34.570Z,1011.41
2022-10-11T00:35:55.645Z,1011.45
2022-10-11T00:36:16.675Z,1011.43
2022-10-11T00:36:37.728Z,1011.45
2022-10-11T00:36:58.782Z,1011.43
2022-10-11T00:37:19.859Z,1011.45
2022-10-11T00:37:40.891Z,1011.47
2022-10-11T00:38:01.950Z,1011.43
2022-10-11T00:38:22.998Z,1011.49
2022-10-11T00:38:44.052Z,1011.45
2022-10-11T00:39:05.160Z,1011.47
2022-10-11T00:39:26.222Z,1011.47
2022-10-11T00:39:47.277Z,1011.49
2022-10-11T00:40:08.321Z,1011.51
2022-10-11T00:40:29.406Z,1011.51
2022-10-11T00:40:50.475Z,1011.49
2022-10-11T00:41:11.523Z,1011.51
2022-10-11T00:41:32.602Z,1011.51
2022-10-11T00:41:53.641Z,1011.51
2022-10-11T00:42:14.686Z,1011.53
2022-10-11T00:42:35.749Z,1011.51
2022-10-11T00:42:56.838Z,1011.53
2022-10-11T00:43:17.869Z,1011.55
2022-10-11T00:43:38.953Z,1011.55
2022-10-11T00:44:00.005Z,1011.55
2022-10-11T00:44:21.069Z,1011.55
2022-10-11T00:44:42.123Z,1011.55
2022-10-11T00:45:03.193Z,1011.55
2022-10-11T00:45:24.254Z,1011.53
2022-10-11T00:45:45.287Z,1011.55
2022-10-11T00:46:06.828Z,1011.57
2022-10-11T00:46:28.111Z,1011.55
2022-10-11T00:46:51.748Z,1011.55
2022-10-11T00:47:14.690Z,1011.59
2022-10-11T00:47:35.867Z,1011.55
2022-10-11T00:47:56.923Z,1011.57
2022-10-11T00:48:17.971Z,1011.59
2022-10-11T00:48:39.017Z,1011.59
2022-10-11T00:49:00.082Z,1011.57
2022-10-11T00:49:21.136Z,1011.57
2022-10-11T00:49:42.217Z,1011.55
2022-10-11T00:50:03.275Z,1011.57
2022-10-11T00:50:24.317Z,1011.59
2022-10-11T00:50:45.382Z,1011.55
2022-10-11T00:51:06.981Z,1011.61
2022-10-11T00:51:28.378Z,1011.59
2022-10-11T00:51:49.427Z,1011.59
2022-10-11T00:52:10.491Z,1011.61
2022-10-11T00:52:31.622Z,1011.63
2022-10-11T00:52:52.644Z,1011.63
2022-10-11T00:53:13.702Z,1011.63
2022-10-11T00:53:34.755Z,1011.61
2022-10-11T00:53:55.817Z,1011.63
2022-10-11T00:54:16.864Z,1011.65
2022-10-11T00:54:37.920Z,1011.67
2022-10-11T00:54:59.110Z,1011.65
2022-10-11T00:55:20.148Z,1011.69
2022-10-11T00:55:41.199Z,1011.67
2022-10-11T00:56:02.749Z,1011.69
2022-10-11T00:56:23.993Z,1011.69
2022-10-11T00:56:45.037Z,1011.70
2022-10-11T00:57:06.089Z,1011.70
2022-10-11T00:57:27.134Z,1011.72
2022-10-11T00:57:48.188Z,1011.72
2022-10-11T00:58:09.242Z,1011.72
2022-10-11T00:58:30.295Z,1011.74
2022-10-11T00:58:51.355Z,1011.72
2022-10-11T00:59:12.413Z,1011.70
2022-10-11T00:59:33.462Z,1011.74
2022-10-11T00:59:54.520Z,1011.70
2022-10-11T01:00:15.587Z,1011.70
2022-10-11T01:00:36.660Z,1011.72
2022-10-11T01:00:57.927Z,1011.72
2022-10-11T01:01:19.082Z,1011.72
2022-10-11T01:01:40.208Z,1011.72
2022-10-11T01:02:01.253Z,1011.70
2022-10-11T01:02:22.308Z,1011.72
2022-10-11T01:02:43.358Z,1011.72
2022-10-11T01:03:04.461Z,1011.72
2022-10-11T01:03:25.491Z,1011.72
2022-10-11T01:03:46.557Z,1011.70
2022-10-11T01:04:07.601Z,1011.72
2022-10-11T01:04:28.654Z,1011.70
2022-10-11T01:04:57.436Z,1011.70
2022-10-11T01:05:32.234Z,1011.70
2022-10-11T01:05:43.777Z,1011.70
2022-10-11T01:06:05.259Z,1011.72
2022-10-11T01:06:26.417Z,1011.70
2022-10-11T01:06:47.461Z,1011.69
2022-10-11T01:07:08.514Z,1011.74
2022-10-11T01:07:29.584Z,1011.72
2022-10-11T01:07:50.712Z,1011.70
2022-10-11T01:08:11.739Z,1011.70
2022-10-11T01:08:32.795Z,1011.70
2022-10-11T01:08:53.849Z,1011.72
2022-10-11T01:09:14.919Z,1011.70
2022-10-11T01:09:35.966Z,1011.74
2022-10-11T01:09:57.002Z,1011.74
2022-10-11T01:10:18.192Z,1011.76
2022-10-11T01:10:39.245Z,1011.72
2022-10-11T01:11:00.296Z,1011.70
2022-10-11T01:11:21.342Z,1011.70
2022-10-11T01:11:42.393Z,1011.72
2022-10-11T01:12:03.465Z,1011.74
2022-10-11T01:12:24.512Z,1011.72
2022-10-11T01:12:45.603Z,1011.74
2022-10-11T01:13:06.626Z,1011.76
2022-10-11T01:13:27.685Z,1011.74
2022-10-11T01:13:48.730Z,1011.76
2022-10-11T01:14:09.777Z,1011.76
2022-10-11T01:14:30.829Z,1011.74
2022-10-11T01:14:51.895Z,1011.74
2022-10-11T01:15:12.950Z,1011.76
2022-10-11T01:15:33.999Z,1011.76
2022-10-11T01:15:55.091Z,1011.78
2022-10-11T01:16:16.121Z,1011.76
2022-10-11T01:16:37.170Z,1011.76
2022-10-11T01:16:58.218Z,1011.78
2022-10-11T01:17:19.323Z,1011.76
2022-10-11T01:17:40.338Z,1011.78
2022-10-11T01:18:01.397Z,1011.78
2022-10-11T01:18:22.440Z,1011.80
2022-10-11T01:18:43.493Z,1011.82
2022-10-11T01:19:04.549Z,1011.80
2022-10-11T01:19:25.643Z,1011.82
2022-10-11T01:19:46.674Z,1011.82
2022-10-11T01:20:07.723Z,1011.82
2022-10-11T01:20:28.778Z,1011.84
2022-10-11T01:20:49.937Z,1011.82
2022-10-11T01:21:10.999Z,1011.82
2022-10-11T01:21:32.045Z,1011.84
2022-10-11T01:21:53.097Z,1011.86
2022-10-11T01:22:14.160Z,1011.86
2022-10-11T01:22:35.212Z,1011.80
2022-10-11T01:22:56.275Z,1011.82
2022-10-11T01:23:17.313Z,1011.84
2022-10-11T01:23:38.367Z,1011.86
2022-10-11T01:23:59.456Z,1011.86
2022-10-11T01:24:20.496Z,1011.84
2022-10-11T01:24:41.535Z,1011.86
2022-10-11T01:25:02.590Z,1011.88
2022-10-11T01:25:23.647Z,1011.92
2022-10-11T01:25:44.701Z,1011.90
2022-10-11T01:26:06.428Z,1011.90
2022-10-11T01:26:27.927Z,1011.92
2022-10-11T01:26:49.044Z,1011.94
2022-10-11T01:27:10.073Z,1011.94
2022-10-11T01:27:31.211Z,1011.92
2022-10-11T01:27:52.230Z,1011.94
2022-10-11T01:28:13.354Z,1011.96
2022-10-11T01:28:34.563Z,1011.96
2022-10-11T01:28:55.742Z,1011.96
2022-10-11T01:29:16.808Z,1011.96
2022-10-11T01:29:37.859Z,1011.96
2022-10-11T01:29:58.902Z,1011.98
2022-10-11T01:30:19.967Z,1012.00
2022-10-11T01:30:41.062Z,1011.96
2022-10-11T01:31:02.096Z,1011.98
2022-10-11T01:31:23.250Z,1011.94
2022-10-11T01:31:44.312Z,1011.98
2022-10-11T01:32:05.356Z,1012.00
2022-10-11T01:32:26.399Z,1011.94
2022-10-11T01:32:47.471Z,1011.94
2022-10-11T01:33:08.500Z,1011.96
2022-10-11T01:33:29.551Z,1011.96
2022-10-11T01:33:50.597Z,1011.96
2022-10-11T01:34:11.657Z,1011.94
2022-10-11T01:34:32.694Z,1011.98
2022-10-11T01:34:53.788Z,1011.96
2022-10-11T01:35:14.846Z,1011.96
2022-10-11T01:35:35.925Z,1011.98
2022-10-11T01:35:56.949Z,1011.96
2022-10-11T01:36:18.007Z,1012.00
2022-10-11T01:36:39.068Z,1011.98
2022-10-11T01:37:00.148Z,1011.98
2022-10-11T01:37:21.187Z,1012.00
2022-10-11T01:37:42.231Z,1011.98
2022-10-11T01:38:03.284Z,1011.98
2022-10-11T01:38:24.341Z,1012.00
2022-10-11T01:38:45.392Z,1011.98
2022-10-11T01:39:06.499Z,1011.98
2022-10-11T01:39:27.543Z,1012.00
2022-10-11T01:39:48.598Z,1012.00
2022-10-11T01:40:09.656Z,1012.02
2022-10-11T01:40:30.709Z,1011.98
2022-10-11T01:40:51.754Z,1012.00
2022-10-11T01:41:12.861Z,1012.00
2022-10-11T01:41:33.883Z,1011.96
2022-10-11T01:41:55.043Z,1011.96
2022-10-11T01:42:16.103Z,1011.98
2022-10-11T01:42:37.139Z,1011.98
2022-10-11T01:42:58.193Z,1011.98
2022-10-11T01:43:19.248Z,1011.96
2022-10-11T01:43:40.344Z,1011.98
2022-10-11T01:44:01.378Z,1011.98
2022-10-11T01:44:22.431Z,1011.98
2022-10-11T01:44:43.488Z,1011.98
2022-10-11T01:45:04.539Z,1011.98
2022-10-11T01:45:25.596Z,1012.00
2022-10-11T01:45:46.650Z,1012.00
2022-10-11T01:46:08.142Z,1011.98
2022-10-11T01:46:29.459Z,1012.02
2022-10-11T01:46:50.500Z,1012.00
2022-10-11T01:47:11.560Z,1011.98
2022-10-11T01:47:32.613Z,1012.00
2022-10-11T01:47:53.674Z,1012.00
2022-10-11T01:48:14.717Z,1011.98
2022-10-11T01:48:35.778Z,1011.98
2022-10-11T01:48:56.828Z,1012.00
2022-10-11T01:49:17.880Z,1012.00
2022-10-11T01:49:38.940Z,1012.00
2022-10-11T01:49:59.989Z,1012.00
2022-10-11T01:50:21.045Z,1012.02
2022-10-11T01:50:42.116Z,1012.02
2022-10-11T01:51:03.147Z,1012.02
2022-10-11T01:51:24.207Z,1012.04
2022-10-11T01:51:47.464Z,1012.02
2022-10-11T01:52:08.710Z,1012.04
2022-10-11T01:52:29.783Z,1012.04
2022-10-11T01:52:50.833Z,1012.04
2022-10-11T01:53:11.904Z,1012.02
2022-10-11T01:53:32.969Z,1012.06
2022-10-11T01:53:54.000Z,1012.06
2022-10-11T01:54:15.047Z,1012.08
2022-10-11T01:54:56.972Z,1012.08
2022-10-11T01:55:10.623Z,1012.06
2022-10-11T01:55:30.045Z,1012.08
2022-10-11T01:55:51.079Z,1012.10
2022-10-11T01:56:12.139Z,1012.06
2022-10-11T01:56:33.183Z,1012.08
2022-10-11T01:56:54.232Z,1012.08
2022-10-11T01:57:15.280Z,1012.08
2022-10-11T01:57:36.457Z,1012.08
2022-10-11T01:57:57.512Z,1012.10
2022-10-11T01:58:18.575Z,1012.12
2022-10-11T01:58:39.662Z,1012.08
2022-10-11T01:59:00.676Z,1012.10
2022-10-11T01:59:21.736Z,1012.10
2022-10-11T01:59:42.771Z,1012.10
2022-10-11T02:00:03.826Z,1012.10
2022-10-11T02:00:24.878Z,1012.08
2022-10-11T02:00:45.955Z,1012.08
2022-10-11T02:01:07.066Z,1012.08
2022-10-11T02:01:28.188Z,1012.10
2022-10-11T02:01:49.300Z,1012.10
2022-10-11T02:02:10.348Z,1012.10
2022-10-11T02:02:31.400Z,1012.08
2022-10-11T02:02:52.473Z,1012.10
2022-10-11T02:03:13.525Z,1012.10
2022-10-11T02:03:34.594Z,1012.10
2022-10-11T02:03:55.644Z,1012.12
2022-10-11T02:04:16.700Z,1012.08
2022-10-11T02:04:37.756Z,1012.14
2022-10-11T02:04:58.822Z,1012.12
2022-10-11T02:05:19.874Z,1012.14
2022-10-11T02:05:40.924Z,1012.16
2022-10-11T02:06:02.476Z,1012.17
2022-10-11T02:06:23.775Z,1012.14
2022-10-11T02:06:44.792Z,1012.16
2022-10-11T02:07:05.850Z,1012.17
2022-10-11T02:07:26.899Z,1012.12
2022-10-11T02:07:47.954Z,1012.17
2022-10-11T02:08:09.129Z,1012.14
2022-10-11T02:08:30.182Z,1012.16
2022-10-11T02:08:51.252Z,1012.14
2022-10-11T02:09:12.298Z,1012.14
2022-10-11T02:09:33.354Z,1012.14
2022-10-11T02:09:54.400Z,1012.14
2022-10-11T02:10:15.454Z,1012.16
2022-10-11T02:10:36.499Z,1012.16
2022-10-11T02:10:57.585Z,1012.14
2022-10-11T02:11:18.615Z,1012.14
2022-10-11T02:11:39.670Z,1012.16
2022-10-11T02:12:00.739Z,1012.14
2022-10-11T02:12:21.795Z,1012.14
2022-10-11T02:12:42.830Z,1012.16
2022-10-11T02:13:03.897Z,1012.16
2022-10-11T02:13:25.072Z,1012.16
2022-10-11T02:13:46.142Z,1012.14
2022-10-11T02:14:07.163Z,1012.14
2022-10-11T02:14:28.222Z,1012.17
2022-10-11T02:14:49.277Z,1012.16
2022-10-11T02:15:10.324Z,1012.14
2022-10-11T02:15:31.382Z,1012.16
2022-10-11T02:15:52.444Z,1012.17
2022-10-11T02:16:13.493Z,1012.16
2022-10-11T02:16:34.574Z,1012.16
2022-10-11T02:16:55.596Z,1012.16
2022-10-11T02:17:16.647Z,1012.12
2022-10-11T02:17:37.703Z,1012.14
2022-10-11T02:17:58.759Z,1012.14
2022-10-11T02:18:19.816Z,1012.14
2022-10-11T02:18:40.996Z,1012.16
2022-10-11T02:19:02.041Z,1012.16
2022-10-11T02:19:23.089Z,1012.17
2022-10-11T02:19:44.146Z,1012.14
2022-10-11T02:20:05.198Z,1012.16
2022-10-11T02:20:26.283Z,1012.16
2022-10-11T02:20:47.344Z,1012.17
2022-10-11T02:21:08.385Z,1012.17
2022-10-11T02:21:29.432Z,1012.19
2022-10-11T02:21:50.480Z,1012.21
2022-10-11T02:22:11.540Z,1012.21
2022-10-11T02:22:32.607Z,1012.21
2022-10-11T02:22:53.659Z,1012.23
2022-10-11T02:23:14.741Z,1012.23
2022-10-11T02:23:35.785Z,1012.19
2022-10-11T02:23:56.944Z,1012.19
2022-10-11T02:24:17.998Z,1012.19
2022-10-11T02:24:39.050Z,1012.19
2022-10-11T02:25:00.121Z,1012.17
2022-10-11T02:25:21.164Z,1012.19
2022-10-11T02:25:42.228Z,1012.19
2022-10-11T02:26:03.675Z,1012.19
2022-10-11T02:26:24.883Z,1012.19
2022-10-11T02:26:45.931Z,1012.17
2022-10-11T02:27:06.982Z,1012.19
2022-10-11T02:27:28.068Z,1012.19
2022-10-11T02:27:49.117Z,1012.19
2022-10-11T02:28:10.230Z,1012.21
2022-10-11T02:28:31.360Z,1012.17
2022-10-11T02:28:52.521Z,1012.19
2022-10-11T02:29:13.615Z,1012.19
2022-10-11T02:29:34.663Z,1012.19
2022-10-11T02:29:55.716Z,1012.21
2022-10-11T02:30:16.793Z,1012.21
2022-10-11T02:30:37.833Z,1012.19
2022-10-11T02:30:58.881Z,1012.21
2022-10-11T02:31:19.956Z,1012.21
2022-10-11T02:31:41.027Z,1012.23
2022-10-11T02:32:02.056Z,1012.23
2022-10-11T02:32:23.112Z,1012.25
2022-10-11T02:32:44.154Z,1012.23
2022-10-11T02:33:05.211Z,1012.23
2022-10-11T02:33:26.267Z,1012.21
2022-10-11T02:33:47.311Z,1012.21
2022-10-11T02:34:08.356Z,1012.23
2022-10-11T02:34:29.542Z,1012.21
2022-10-11T02:34:50.598Z,1012.25
2022-10-11T02:35:11.654Z,1012.19
2022-10-11T02:35:32.724Z,1012.25
2022-10-11T02:35:53.762Z,1012.21
2022-10-11T02:36:14.819Z,1012.21
2022-10-11T02:36:35.863Z,1012.21
2022-10-11T02:36:56.921Z,1012.23
2022-10-11T02:37:18.005Z,1012.23
2022-10-11T02:37:39.032Z,1012.23
2022-10-11T02:38:00.094Z,1012.19
2022-10-11T02:38:21.140Z,1012.21
2022-10-11T02:38:42.199Z,1012.23
2022-10-11T02:39:03.251Z,1012.21
2022-10-11T02:39:24.292Z,1012.23
2022-10-11T02:39:45.357Z,1012.19
2022-10-11T02:40:06.416Z,1012.19
2022-10-11T02:40:27.522Z,1012.21
2022-10-11T02:40:48.557Z,1012.23
2022-10-11T02:41:09.618Z,1012.23
2022-10-11T02:41:30.668Z,1012.23
2022-10-11T02:41:51.718Z,1012.19
2022-10-11T02:42:12.773Z,1012.21
2022-10-11T02:42:33.829Z,1012.21
2022-10-11T02:42:54.912Z,1012.19
2022-10-11T02:43:15.926Z,1012.19
2022-10-11T02:43:36.974Z,1012.21
2022-10-11T02:43:58.474Z,1012.21
2022-10-11T02:44:19.532Z,1012.23
2022-10-11T02:44:40.568Z,1012.21
2022-10-11T02:45:01.734Z,1012.21
2022-10-11T02:45:22.827Z,1012.23
2022-10-11T02:45:43.843Z,1012.23
2022-10-11T02:46:05.115Z,1012.21
2022-10-11T02:46:26.290Z,1012.23
2022-10-11T02:46:47.364Z,1012.25
2022-10-11T02:47:08.390Z,1012.25
2022-10-11T02:47:29.470Z,1012.23
2022-10-11T02:47:50.517Z,1012.23
2022-10-11T02:48:11.561Z,1012.25
2022-10-11T02:48:32.605Z,1012.27
2022-10-11T02:48:53.657Z,1012.23
2022-10-11T02:49:14.712Z,1012.25
2022-10-11T02:49:35.758Z,1012.27
2022-10-11T02:49:56.818Z,1012.25
2022-10-11T02:50:18.012Z,1012.27
2022-10-11T02:50:39.023Z,1012.27
2022-10-11T02:51:00.089Z,1012.29
2022-10-11T02:51:21.127Z,1012.31
2022-10-11T02:51:42.186Z,1012.27
2022-10-11T02:52:03.242Z,1012.29
2022-10-11T02:52:24.311Z,1012.29
2022-10-11T02:52:45.351Z,1012.33
2022-10-11T02:53:06.406Z,1012.31
2022-10-11T02:53:27.652Z,1012.33
2022-10-11T02:53:48.699Z,1012.33
2022-10-11T02:54:09.753Z,1012.35
2022-10-11T02:54:30.814Z,1012.33
2022-10-11T02:54:51.857Z,1012.37
2022-10-11T02:55:12.918Z,1012.37
2022-10-11T02:55:33.965Z,1012.37
2022-10-11T02:55:55.082Z,1012.35
2022-10-11T02:56:16.094Z,1012.35
2022-10-11T02:56:37.160Z,1012.37
2022-10-11T02:56:58.222Z,1012.37
2022-10-11T02:57:19.304Z,1012.37
2022-10-11T02:57:40.363Z,1012.41
2022-10-11T02:58:01.445Z,1012.37
2022-10-11T02:58:22.494Z,1012.37
2022-10-11T02:58:43.560Z,1012.37
2022-10-11T02:59:04.628Z,1012.37
2022-10-11T02:59:25.663Z,1012.37
2022-10-11T02:59:46.712Z,1012.39
2022-10-11T03:00:07.784Z,1012.39
2022-10-11T03:00:28.834Z,1012.37
2022-10-11T03:00:49.897Z,1012.41
2022-10-11T03:01:10.991Z,1012.39
2022-10-11T03:01:32.131Z,1012.39
2022-10-11T03:01:53.439Z,1012.39
2022-10-11T03:02:14.559Z,1012.39
2022-10-11T03:02:35.641Z,1012.41
2022-10-11T03:02:56.690Z,1012.43
2022-10-11T03:03:17.739Z,1012.41
2022-10-11T03:03:38.806Z,1012.43
2022-10-11T03:03:59.865Z,1012.43
2022-10-11T03:04:20.922Z,1012.43
2022-10-11T03:04:42.009Z,1012.41
2022-10-11T03:05:03.053Z,1012.43
2022-10-11T03:05:24.103Z,1012.39
2022-10-11T03:05:45.162Z,1012.41
2022-10-11T03:06:06.722Z,1012.41
2022-10-11T03:06:28.045Z,1012.43
2022-10-11T03:06:49.106Z,1012.41
2022-10-11T03:07:10.222Z,1012.43
2022-10-11T03:07:31.282Z,1012.43
2022-10-11T03:07:52.325Z,1012.45
2022-10-11T03:08:13.380Z,1012.43
2022-10-11T03:08:34.427Z,1012.43
2022-10-11T03:08:55.469Z,1012.45
2022-10-11T03:09:16.533Z,1012.45
2022-10-11T03:09:37.597Z,1012.41
2022-10-11T03:09:58.643Z,1012.47
2022-10-11T03:10:19.698Z,1012.43
2022-10-11T03:10:40.745Z,1012.43
2022-10-11T03:11:01.794Z,1012.43
2022-10-11T03:11:22.856Z,1012.45
2022-10-11T03:11:43.896Z,1012.43
2022-10-11T03:12:04.980Z,1012.43
2022-10-11T03:12:26.027Z,1012.45
2022-10-11T03:12:47.085Z,1012.45
2022-10-11T03:13:08.127Z,1012.45
2022-10-11T03:13:29.175Z,1012.41
2022-10-11T03:13:50.227Z,1012.45
2022-10-11T03:14:11.305Z,1012.45
2022-10-11T03:14:32.356Z,1012.43
2022-10-11T03:14:53.413Z,1012.43
2022-10-11T03:15:14.449Z,1012.45
2022-10-11T03:15:35.500Z,1012.43
2022-10-11T03:16:03.171Z,1012.43
2022-10-11T03:16:23.517Z,1012.47
2022-10-11T03:16:44.565Z,1012.47
2022-10-11T03:17:30.998Z,1012.47
2022-10-11T03:17:36.632Z,1012.45
2022-10-11T03:17:58.242Z,1012.49
2022-10-11T03:18:19.281Z,1012.49
2022-10-11T03:18:40.393Z,1012.47
2022-10-11T03:19:01.427Z,1012.47
2022-10-11T03:19:22.601Z,1012.51
2022-10-11T03:19:43.652Z,1012.49
2022-10-11T03:20:04.707Z,1012.49
2022-10-11T03:20:25.754Z,1012.51
2022-10-11T03:20:46.805Z,1012.51
2022-10-11T03:21:07.857Z,1012.51
2022-10-11T03:21:28.945Z,1012.53
2022-10-11T03:21:49.973Z,1012.51
2022-10-11T03:22:11.027Z,1012.53
2022-10-11T03:22:32.084Z,1012.53
2022-10-11T03:22:53.171Z,1012.55
2022-10-11T03:23:14.198Z,1012.57
2022-10-11T03:23:35.292Z,1012.53
2022-10-11T03:23:56.327Z,1012.57
2022-10-11T03:24:17.386Z,1012.59
2022-10-11T03:24:38.598Z,1012.53
2022-10-11T03:25:03.694Z,1012.57
2022-10-11T03:25:25.243Z,1012.55
2022-10-11T03:25:46.294Z,1012.55
2022-10-11T03:26:08.047Z,1012.55
2022-10-11T03:26:29.342Z,1012.55
2022-10-11T03:26:50.421Z,1012.59
2022-10-11T03:27:11.460Z,1012.57
2022-10-11T03:27:32.516Z,1012.57
2022-10-11T03:27:53.563Z,1012.59
2022-10-11T03:28:14.652Z,1012.61
2022-10-11T03:28:35.739Z,1012.59
2022-10-11T03:28:56.833Z,1012.59
2022-10-11T03:29:17.935Z,1012.59
2022-10-11T03:29:38.999Z,1012.55
2022-10-11T03:30:00.097Z,1012.59
2022-10-11T03:30:21.133Z,1012.55
2022-10-11T03:30:42.185Z,1012.55
2022-10-11T03:31:03.232Z,1012.57
2022-10-11T03:31:24.293Z,1012.53
2022-10-11T03:31:45.344Z,1012.55
2022-10-11T03:32:06.413Z,1012.55
2022-10-11T03:32:27.466Z,1012.59
2022-10-11T03:32:48.499Z,1012.59
2022-10-11T03:33:09.563Z,1012.59
2022-10-11T03:33:30.614Z,1012.55
2022-10-11T03:33:51.671Z,1012.59
2022-10-11T03:34:12.723Z,1012.61
2022-10-11T03:34:33.767Z,1012.55
2022-10-11T03:34:54.816Z,1012.57
2022-10-11T03:35:15.886Z,1012.57
2022-10-11T03:35:36.932Z,1012.57
2022-10-11T03:35:57.991Z,1012.59
2022-10-11T03:36:19.045Z,1012.55
2022-10-11T03:36:40.103Z,1012.59
2022-10-11T03:37:01.146Z,1012.57
2022-10-11T03:37:22.189Z,1012.57
2022-10-11T03:37:43.252Z,1012.59
2022-10-11T03:38:04.325Z,1012.59
2022-10-11T03:38:25.404Z,1012.59
2022-10-11T03:38:46.450Z,1012.61
2022-10-11T03:39:07.544Z,1012.59
2022-10-11T03:39:28.637Z,1012.59
2022-10-11T03:39:49.675Z,1012.61
2022-10-11T03:40:10.728Z,1012.61
2022-10-11T03:40:31.812Z,1012.64
2022-10-11T03:40:52.891Z,1012.66
2022-10-11T03:41:13.919Z,1012.66
2022-10-11T03:41:34.972Z,1012.64
2022-10-11T03:41:56.026Z,1012.64
2022-10-11T03:42:17.083Z,1012.66
2022-10-11T03:42:38.183Z,1012.68
2022-10-11T03:42:59.235Z,1012.64
2022-10-11T03:43:20.276Z,1012.66
2022-10-11T03:43:41.327Z,1012.68
2022-10-11T03:44:02.383Z,1012.68
2022-10-11T03:44:23.428Z,1012.70
2022-10-11T03:44:44.477Z,1012.68
2022-10-11T03:45:05.535Z,1012.70
2022-10-11T03:45:26.596Z,1012.72
2022-10-11T03:45:47.670Z,1012.64
2022-10-11T03:46:09.337Z,1012.64
2022-10-11T03:46:30.471Z,1012.66
2022-10-11T03:46:51.531Z,1012.68
2022-10-11T03:47:12.572Z,1012.64
2022-10-11T03:47:33.651Z,1012.66
2022-10-11T03:47:54.683Z,1012.64
2022-10-11T03:48:15.746Z,1012.66
2022-10-11T03:48:36.808Z,1012.68
2022-10-11T03:48:57.863Z,1012.64
2022-10-11T03:49:18.968Z,1012.66
2022-10-11T03:49:43.597Z,1012.64
2022-10-11T03:50:04.941Z,1012.70
2022-10-11T03:50:26.001Z,1012.66
2022-10-11T03:50:47.052Z,1012.72
2022-10-11T03:51:08.279Z,1012.68
2022-10-11T03:51:29.359Z,1012.70
2022-10-11T03:51:50.387Z,1012.70
2022-10-11T03:52:11.443Z,1012.72
2022-10-11T03:52:33.233Z,1012.76
2022-10-11T03:52:54.299Z,1012.74
2022-10-11T03:53:15.340Z,1012.74
2022-10-11T03:53:36.391Z,1012.74
2022-10-11T03:53:57.483Z,1012.70
2022-10-11T03:54:18.495Z,1012.78
2022-10-11T03:54:39.537Z,1012.76
2022-10-11T03:55:00.586Z,1012.78
2022-10-11T03:55:21.642Z,1012.76
2022-10-11T03:55:42.690Z,1012.80
2022-10-11T03:56:08.332Z,1012.78
2022-10-11T03:56:29.627Z,1012.82
2022-10-11T03:56:50.677Z,1012.80
2022-10-11T03:57:11.745Z,1012.80
2022-10-11T03:57:32.794Z,1012.82
2022-10-11T03:57:54.101Z,1012.84
2022-10-11T03:58:15.141Z,1012.82
2022-10-11T03:58:36.207Z,1012.86
2022-10-11T03:58:57.258Z,1012.80
2022-10-11T03:59:18.328Z,1012.80
2022-10-11T03:59:39.362Z,1012.80
2022-10-11T04:00:00.426Z,1012.82
2022-10-11T04:00:21.477Z,1012.82
2022-10-11T04:00:42.537Z,1012.78
2022-10-11T04:01:03.602Z,1012.78
2022-10-11T04:01:24.724Z,1012.78
2022-10-11T04:01:45.793Z,1012.78
2022-10-11T04:02:06.922Z,1012.78
2022-10-11T04:02:27.976Z,1012.78
2022-10-11T04:02:49.042Z,1012.80
2022-10-11T04:03:10.251Z,1012.80
2022-10-11T04:03:31.317Z,1012.80
2022-10-11T04:03:52.369Z,1012.80
2022-10-11T04:04:13.474Z,1012.80
2022-10-11T04:04:34.477Z,1012.80
2022-10-11T04:04:55.538Z,1012.82
2022-10-11T04:05:16.588Z,1012.84
2022-10-11T04:05:37.637Z,1012.80
2022-10-11T04:05:58.698Z,1012.86
2022-10-11T04:06:19.795Z,1012.84
2022-10-11T04:06:40.821Z,1012.84
2022-10-11T04:07:01.871Z,1012.88
2022-10-11T04:07:22.920Z,1012.86
2022-10-11T04:07:43.996Z,1012.86
2022-10-11T04:08:08.485Z,1012.86
2022-10-11T04:08:32.393Z,1012.88
2022-10-11T04:08:53.443Z,1012.88
2022-10-11T04:09:14.482Z,1012.88
2022-10-11T04:09:35.537Z,1012.92
2022-10-11T04:09:56.587Z,1012.90
2022-10-11T04:10:17.642Z,1012.90
2022-10-11T04:10:38.707Z,1012.92
2022-10-11T04:10:59.761Z,1012.90
2022-10-11T04:11:20.807Z,1012.92
2022-10-11T04:11:41.855Z,1012.94
2022-10-11T04:12:02.911Z,1012.92
2022-10-11T04:12:23.987Z,1012.92
2022-10-11T04:12:45.038Z,1012.90
2022-10-11T04:13:06.379Z,1012.92
2022-10-11T04:13:27.387Z,1012.96
2022-10-11T04:13:48.447Z,1012.98
2022-10-11T04:14:09.496Z,1012.94
2022-10-11T04:14:30.543Z,1012.96
2022-10-11T04:14:51.605Z,1012.94
2022-10-11T04:15:12.680Z,1012.96
2022-10-11T04:15:33.746Z,1012.98
2022-10-11T04:15:54.808Z,1012.94